Terminal Aerodrome Forecast
Issued by NWS

Home | Current Version | Previous Version | Text Only | Print | Product List | Glossary On
Versions: 1 2 3 4 5 6 7 8 9 10 11 12 13 14 15 16 17 18
000
FTUS44 KLIX 081139
TAFHUM
TAF
KHUM 081139Z 0812/0912 03010G15KT P6SM VCSH OVC015
     FM081500 03014KT P6SM VCSH OVC010
     FM082300 02017KT P6SM SCT045=

USA.gov is the U.S. government's official web portal to all federal, state and local government web resources and services.